• Join FlightAware (Why Join?)
  • Login
  • US Flag 
12:07AM EST


 

Airport Tracker/Info


-or-


 

Live Flight TrackerFlight Track Log ✈ N523JM ✈ 30-Jul-2013 ✈ KDQH - KOSU

Flight Track Log - Related Links

Times and Time Zones

All times are in EDT time to prevent confusion due to time zone crossing. See the N523JM flight status page for this flight to view local times or setup timezone preferences in your user account.

Time Position Orientation Groundspeed Altitude Reporting Facility
EDT Latitude Longitude Course Direction KTS MPH feet Rate Location/Type
04:36PM 31.4964 -82.9317 North 457 526 5,300  Level Jacksonville Center
04:37PM 31.5694 -82.9169 10° North 241 277 9,800 3,960 Climbing Jacksonville Center
04:38PM 31.6403 -82.9047 North 222 255 13,300 3,000 Climbing Jacksonville Center
04:39PM 31.7178 -82.9097 357° North 249 287 15,800 2,160 Climbing Jacksonville Center
04:41PM 32.0460 -82.8667 North  Level FlightAware Approximate
04:41PM 31.9000 -82.9136 359° North 347 399 19,700  Level Atlanta Center
04:42PM 32.0003 -82.9147 359° North 340 391 21,500 1,800 Climbing Atlanta Center
04:43PM 32.1047 -82.9158 359° North 357 411 23,300 1,680 Climbing Atlanta Center
04:44PM 32.2111 -82.9194 358° North 369 425 24,900 1,620 Climbing Atlanta Center
04:45PM 32.3197 -82.9206 360° North 374 430 26,600 1,500 Climbing Atlanta Center
04:46PM 32.4303 -82.9217 360° North 385 443 28,000 1,200 Climbing Atlanta Center
04:47PM 32.5492 -82.9225 360° North 385 443 29,100 1,020 Climbing Atlanta Center
04:48PM 32.6661 -82.9261 359° North 391 450 30,100 1,020 Climbing Atlanta Center
04:49PM 32.7831 -82.9269 360° North 403 464 31,200 1,020 Climbing Atlanta Center
04:50PM 32.9022 -82.9303 359° North 416 479 32,200 1,020 Climbing Atlanta Center
04:51PM 33.0192 -82.9339 359° North 421 484 33,300 1,020 Climbing Atlanta Center
04:52PM 33.1400 -82.9347 360° North 421 484 34,300 1,020 Climbing Atlanta Center
04:53PM 33.2550 -82.9383 358° North 421 484 35,400 840 Climbing Atlanta Center
04:54PM 33.3697 -82.9419 358° North 421 484 36,000 300 Climbing Atlanta Center
04:55PM 33.4908 -82.9428 360° North 423 487 36,000  Level Atlanta Center
04:56PM 33.6161 -82.9436 360° North 433 498 36,000  Level Atlanta Center
04:57PM 33.7414 -82.9447 360° North 445 512 36,000 60 Level Atlanta Center
04:58PM 33.8644 -82.9456 360° North 445 512 36,200 360 Climbing Atlanta Center
04:59PM 33.9856 -82.9489 359° North 439 505 36,800 360 Climbing Atlanta Center
05:00PM 34.1086 -82.9500 360° North 439 505 37,000 60 Climbing Atlanta Center
05:01PM 34.2172 -82.9511 360° North 439 505 37,000  Level Atlanta Center
05:02PM 34.3342 -82.9544 359° North 439 505 37,000  Level Atlanta Center
05:03PM 34.4572 -82.9581 359° North 434 499 37,000  Level Atlanta Center
05:04PM 34.5783 -82.9589 360° North 434 499 37,000  Level Atlanta Center
05:05PM 34.6975 -82.9600 360° North 429 494 37,000  Level Atlanta Center
05:06PM 34.8206 -82.9633 359° North 436 502 37,000  Level Atlanta Center
05:07PM 34.9519 -82.9719 357° North 436 502 37,000  Level Atlanta Center
05:08PM 35.0753 -82.9728 360° North 436 502 37,000  Level Atlanta Center
05:09PM 35.1961 -82.9739 360° North 441 507 37,000  Level Atlanta Center
05:10PM 35.3069 -82.9750 360° North 441 507 37,000  Level Atlanta Center
05:11PM 35.4278 -82.9786 359° North 441 507 37,000  Level Atlanta Center
05:12PM 35.5508 -82.9794 360° North 441 507 37,000  Level Atlanta Center
05:13PM 35.6803 -82.9828 359° North 436 502 37,000  Level Atlanta Center
05:14PM 35.8033 -82.9839 360° North 436 502 37,000  Level Atlanta Center
05:15PM 35.9244 -82.9875 359° North 436 502 37,000  Level Atlanta Center
05:16PM 36.0456 -82.9908 359° North 436 502 37,000  Level Atlanta Center
05:17PM 36.1664 -82.9919 360° North 436 502 37,000  Level Atlanta Center
05:18PM 36.2853 -82.9956 359° North 431 496 37,000  Level Atlanta Center
05:19PM 36.4064 -82.9967 360° North 436 502 37,000  Level Atlanta Center
05:20PM 36.4644 -82.9975 359° North 435 501 37,000  Level Indianapolis Center
05:21PM 36.5883 -83.0000 359° North 441 507 37,000  Level Indianapolis Center
05:22PM 36.7308 -82.9792 North 440 506 37,000  Level Indianapolis Center
05:23PM 36.8433 -82.9461 13° North 452 520 37,000  Level Indianapolis Center
05:24PM 36.9728 -82.9133 11° North 469 540 37,000 -180 Level Indianapolis Center
05:25PM 37.1169 -82.8533 18° North 462 532 36,700 -420 Descending Indianapolis Center
05:26PM 37.2403 -82.7894 22° Northeast 475 547 36,200 -360 Descending Indianapolis Center
05:27PM 37.3658 -82.7278 21° North 480 552 36,000 -120 Descending Indianapolis Center
05:28PM 37.4892 -82.6664 22° Northeast 478 550 36,000 -720 Level Indianapolis Center
05:29PM 37.6133 -82.6053 21° North 475 547 34,600 -1,740 Descending Indianapolis Center
05:30PM 37.7608 -82.5300 22° Northeast 486 559 32,500 -1,800 Descending Indianapolis Center
05:31PM 37.8869 -82.4678 21° North 484 557 31,000 -840 Descending Indianapolis Center
05:32PM 38.0064 -82.4072 22° Northeast 465 535 30,800 -540 Descending Indianapolis Center
05:33PM 38.1386 -82.3406 22° Northeast 472 543 30,000 -780 Descending Indianapolis Center
05:34PM 38.2647 -82.2758 22° Northeast 483 556 29,200 -540 Descending Indianapolis Center
05:35PM 38.3908 -82.2125 21° North 486 559 29,000 -180 Descending Indianapolis Center
05:36PM 38.5175 -82.1483 22° Northeast 484 557 28,900 -540 Descending Indianapolis Center
05:37PM 38.6450 -82.0831 22° Northeast 488 562 28,000 -1,200 Descending Indianapolis Center
05:38PM 38.7794 -82.0483 11° North 492 566 26,500 -1,860 Descending Indianapolis Center
05:39PM 38.9061 -82.0864 347° North 471 542 24,200 -2,460 Descending Indianapolis Center
05:40PM 39.0231 -82.1333 343° North 449 517 21,500 -2,820 Descending Indianapolis Center
05:41PM 39.1636 -82.1906 342° North 439 505 18,400 -2,640 Descending Indianapolis Center
05:42PM 39.2847 -82.2375 343° North 451 519 16,100 -2,400 Descending Indianapolis Center
05:43PM 39.3978 -82.2811 343° North 426 490 13,500 -2,580 Descending Indianapolis Center
05:44PM 39.4811 -82.3206 340° North 406 467 11,500 -2,040 Descending Indianapolis Center
05:45PM 39.5400 -82.3431 344° North 408 470 11,000 -660 Descending Indianapolis Center
05:45PM 39.6164 -82.3853 337° Northwest 405 466 10,700 -600 Descending Indianapolis Center
05:46PM 39.7019 -82.4717 322° Northwest 383 441 10,000 -360 Descending Indianapolis Center
05:47PM 39.7733 -82.5417 323° Northwest 324 373 10,000 -300 Level Indianapolis Center
05:49PM 39.8386 -82.6042 324° Northwest 287 330 9,400 -1,140 Descending Indianapolis Center
05:50PM 39.9047 -82.6692 323° Northwest 257 296 7,700 -1,680 Descending Indianapolis Center
05:51PM 39.9631 -82.7272 323° Northwest 261 300 6,000 -1,620 Descending Indianapolis Center
05:52PM 40.0217 -82.7847 323° Northwest 263 303 4,400 -1,260 Descending Indianapolis Center
05:53PM 40.0714 -82.8475 316° Northwest 257 296 3,400 -660 Descending Indianapolis Center
05:54PM 40.0817 -82.9364 279° West 167 192 3,000 -660 Descending Indianapolis Center
05:55PM 40.0803 -82.9936 268° West 138 159 2,000 -900 Descending Indianapolis Center
05:56PM 40.0781 -83.0397 266° West 128 147 1,200 -540 Descending Indianapolis Center
05:57PM 40.0761 -83.0844 267° West 142 163 1,000 -240 Descending Indianapolis Center
05:59PM 40.0798 -83.0732 67° East  Level Estimated